createdAt,value
2018-05-12T00:02:12.665Z,98037.70
2018-05-12T00:04:39.090Z,98040.88
2018-05-12T00:07:05.344Z,98042.14
2018-05-12T00:09:31.904Z,98034.28
2018-05-12T00:11:58.179Z,98044.62
2018-05-12T00:14:24.450Z,98038.66
2018-05-12T00:16:50.836Z,98036.03
2018-05-12T00:19:17.063Z,98034.09
2018-05-12T00:21:43.626Z,98033.82
2018-05-12T00:24:09.879Z,98042.03
2018-05-12T00:26:36.170Z,98039.63
2018-05-12T00:29:02.675Z,98041.74
2018-05-12T00:31:28.910Z,98039.58
2018-05-12T00:33:55.427Z,98035.36
2018-05-12T00:36:21.683Z,98034.95
2018-05-12T00:38:47.948Z,98040.00
2018-05-12T00:41:14.343Z,98033.02
2018-05-12T00:43:40.641Z,98026.39
2018-05-12T00:46:06.938Z,98028.66
2018-05-12T00:48:33.221Z,98019.80
2018-05-12T00:50:59.716Z,98022.73
2018-05-12T00:53:25.971Z,98024.80
2018-05-12T00:55:52.325Z,98026.33
2018-05-12T00:58:18.750Z,98022.86
2018-05-12T01:00:45.107Z,98025.91
2018-05-12T01:03:11.771Z,98020.72
2018-05-12T01:05:38.051Z,98016.84
2018-05-12T01:08:04.589Z,98024.42
2018-05-12T01:10:30.884Z,98019.85
2018-05-12T01:12:57.111Z,98017.28
2018-05-12T01:15:23.704Z,98009.40
2018-05-12T01:17:50.016Z,98005.70
2018-05-12T01:20:16.392Z,98009.51
2018-05-12T01:22:42.783Z,98009.75
2018-05-12T01:25:09.016Z,98006.83
2018-05-12T01:27:35.683Z,98003.30
2018-05-12T01:30:01.943Z,98002.91
2018-05-12T01:32:28.368Z,98002.94
2018-05-12T01:34:54.715Z,98005.23
2018-05-12T01:37:22.995Z,97999.77
2018-05-12T01:39:49.298Z,97998.89
2018-05-12T01:42:15.527Z,97992.12
2018-05-12T01:44:41.988Z,97989.97
2018-05-12T01:47:08.255Z,97986.03
2018-05-12T01:49:34.618Z,97977.19
2018-05-12T01:52:00.863Z,97985.78
2018-05-12T01:54:27.223Z,97979.05
2018-05-12T01:56:53.752Z,97979.16
2018-05-12T01:59:20.019Z,97974.84
2018-05-12T02:01:46.455Z,97979.66
2018-05-12T02:04:12.785Z,97979.80
2018-05-12T02:06:39.016Z,97979.27
2018-05-12T02:09:05.631Z,97976.23
2018-05-12T02:11:32.071Z,97973.22
2018-05-12T02:13:58.518Z,97974.48
2018-05-12T02:16:24.815Z,97969.28
2018-05-12T02:18:51.167Z,97974.87
2018-05-12T02:21:17.771Z,97978.66
2018-05-12T02:23:44.087Z,97977.67
2018-05-12T02:26:10.524Z,97982.77
2018-05-12T02:28:36.803Z,97976.42
2018-05-12T02:31:03.117Z,97980.78
2018-05-12T02:33:29.671Z,97988.02
2018-05-12T02:35:55.910Z,97985.23
2018-05-12T02:38:22.351Z,97982.75
2018-05-12T02:40:48.647Z,97984.94
2018-05-12T02:43:14.890Z,97987.64
2018-05-12T02:45:41.521Z,97982.27
2018-05-12T02:48:07.784Z,97985.31
2018-05-12T02:50:34.195Z,97981.23
2018-05-12T02:53:00.683Z,97979.22
2018-05-12T02:55:26.914Z,97974.14
2018-05-12T02:57:53.505Z,97979.34
2018-05-12T03:00:19.795Z,97977.80
2018-05-12T03:02:46.156Z,97974.47
2018-05-12T03:05:12.595Z,97976.84
2018-05-12T03:07:38.847Z,97971.46
2018-05-12T03:10:05.463Z,97968.65
2018-05-12T03:12:31.763Z,97965.36
2018-05-12T03:14:58.174Z,97969.80
2018-05-12T03:17:24.539Z,97977.02
2018-05-12T03:19:50.884Z,97970.93
2018-05-12T03:22:17.502Z,97972.91
2018-05-12T03:24:43.841Z,97961.47
2018-05-12T03:27:10.175Z,97961.50
2018-05-12T03:29:36.597Z,97969.09
2018-05-12T03:32:02.830Z,97967.23
2018-05-12T03:34:29.378Z,97968.41
2018-05-12T03:36:55.660Z,97970.30
2018-05-12T03:39:21.966Z,97969.77
2018-05-12T03:41:48.341Z,97964.06
2018-05-12T03:44:14.636Z,97970.41
2018-05-12T03:46:41.202Z,97973.45
2018-05-12T03:49:07.522Z,97970.30
2018-05-12T03:51:33.821Z,97958.87
2018-05-12T03:54:00.363Z,97965.75
2018-05-12T03:56:26.588Z,97965.75
2018-05-12T03:58:53.258Z,97967.50
2018-05-12T04:01:19.602Z,97971.28
2018-05-12T04:03:45.902Z,97971.64
2018-05-12T04:06:24.320Z,97972.05
2018-05-12T04:09:02.794Z,97971.60
2018-05-12T04:11:41.449Z,97972.36
2018-05-12T04:14:07.687Z,97970.36
2018-05-12T04:16:33.997Z,97970.49
2018-05-12T04:19:00.438Z,97965.92
2018-05-12T04:21:28.023Z,97971.64
2018-05-12T04:23:54.449Z,97972.87
2018-05-12T06:14:44.746Z,97975.05
2018-05-12T06:17:10.984Z,97984.36
2018-05-12T06:19:37.240Z,97981.34
2018-05-12T06:22:03.577Z,97976.44
2018-05-12T06:24:29.808Z,97983.17
2018-05-12T06:26:56.076Z,97983.34
2018-05-12T06:29:22.319Z,97983.34
2018-05-12T06:31:48.622Z,97981.80
2018-05-12T06:34:14.880Z,97982.87
2018-05-12T06:36:41.154Z,97980.31
2018-05-12T06:39:07.492Z,97983.63
2018-05-12T06:41:33.787Z,97982.45
2018-05-12T06:44:00.074Z,97984.14
2018-05-12T06:46:26.307Z,97984.75
2018-05-12T06:48:52.573Z,97982.59
2018-05-12T06:51:18.876Z,97980.17
2018-05-12T06:53:46.187Z,97981.43
2018-05-12T06:56:12.469Z,97986.86
2018-05-12T06:58:38.720Z,97982.22
2018-05-12T07:01:04.999Z,97986.80
2018-05-12T07:03:31.271Z,97981.64
2018-05-12T07:05:57.591Z,97979.16
2018-05-12T07:08:23.848Z,97986.95
2018-05-12T07:10:50.088Z,97984.39
2018-05-12T07:13:16.741Z,97989.43
2018-05-12T07:15:42.978Z,97988.36
2018-05-12T07:18:09.243Z,97991.63
2018-05-12T07:20:35.528Z,97988.87
2018-05-12T07:23:01.766Z,97992.51
2018-05-12T07:25:28.059Z,97993.40
2018-05-12T07:27:54.303Z,97982.91
2018-05-12T07:30:20.568Z,97983.45
2018-05-12T07:32:46.855Z,97984.89
2018-05-12T07:35:14.184Z,97982.78
2018-05-12T07:37:40.443Z,97984.98
2018-05-12T07:40:06.735Z,97983.94
2018-05-12T07:42:32.995Z,97987.60
2018-05-12T07:44:59.293Z,97980.45
2018-05-12T07:47:25.534Z,97987.77
2018-05-12T07:49:51.892Z,97986.18
2018-05-12T07:52:18.139Z,97986.81
2018-05-12T07:54:44.410Z,97985.45
2018-05-12T07:57:10.707Z,97981.87
2018-05-12T07:59:37.160Z,97986.98
2018-05-12T08:02:03.412Z,97976.98
2018-05-12T08:04:29.740Z,97981.11
2018-05-12T08:06:56.163Z,97981.95
2018-05-12T08:09:22.424Z,97981.66
2018-05-12T08:11:48.696Z,97981.20
2018-05-12T08:14:14.978Z,97977.69
2018-05-12T08:16:41.216Z,97975.73
2018-05-12T08:19:07.459Z,97968.14
2018-05-12T08:21:33.769Z,97968.20
2018-05-12T08:24:00.027Z,97965.93
2018-05-12T08:26:26.371Z,97965.36
2018-05-12T08:28:52.619Z,97972.83
2018-05-12T08:31:18.872Z,97967.55
2018-05-12T08:33:45.155Z,97965.25
2018-05-12T08:36:11.451Z,97964.28
2018-05-12T08:38:37.759Z,97956.66
2018-05-12T08:41:04.006Z,97959.11
2018-05-12T08:43:30.255Z,97955.02
2018-05-12T08:45:56.635Z,97955.20
2018-05-12T08:48:22.951Z,97955.00
2018-05-12T08:50:49.194Z,97944.05
2018-05-12T08:53:15.784Z,97943.50
2018-05-12T08:55:42.085Z,97946.22
2018-05-12T08:58:08.429Z,97940.16
2018-05-12T09:00:34.822Z,97936.29
2018-05-12T09:03:01.081Z,97940.94
2018-05-12T09:05:27.298Z,97945.38
2018-05-12T09:07:53.526Z,97940.02
2018-05-12T09:10:19.946Z,97936.45
2018-05-12T09:12:46.339Z,97933.36
2018-05-12T09:15:12.591Z,97935.41
2018-05-12T09:17:38.928Z,97936.00
2018-05-12T09:20:05.159Z,97925.91
2018-05-12T09:22:31.527Z,97931.23
2018-05-12T09:24:57.776Z,97921.39
2018-05-12T09:27:24.186Z,97923.02
2018-05-12T09:29:50.602Z,97927.22
2018-05-12T09:32:16.830Z,97920.17
2018-05-12T09:34:43.287Z,97914.17
2018-05-12T09:37:09.667Z,97915.16
2018-05-12T09:39:35.892Z,97914.86
2018-05-12T09:42:02.135Z,97911.56
2018-05-12T09:44:28.440Z,97902.75
2018-05-12T09:46:54.742Z,97910.11
2018-05-12T09:49:20.967Z,97895.95
2018-05-12T09:51:47.270Z,97896.47
2018-05-12T09:54:13.507Z,97884.84
2018-05-12T09:56:39.819Z,97887.58
2018-05-12T09:59:06.188Z,97888.98
2018-05-12T10:01:32.426Z,97883.53
2018-05-12T10:03:58.751Z,97882.02
2018-05-12T10:06:25.024Z,97878.63
2018-05-12T10:08:51.259Z,97875.27
2018-05-12T10:11:17.534Z,97865.88
2018-05-12T10:13:43.771Z,97861.50
2018-05-12T10:16:10.048Z,97869.91
2018-05-12T10:18:36.356Z,97866.96
2018-05-12T10:21:02.611Z,97867.78
2018-05-12T10:23:28.877Z,97855.59
2018-05-12T10:25:55.126Z,97850.25
2018-05-12T10:28:21.438Z,97847.56
2018-05-12T10:30:47.675Z,97838.52
2018-05-12T10:33:13.920Z,97837.12
2018-05-12T10:35:40.195Z,97846.55
2018-05-12T10:38:06.435Z,97833.70
2018-05-12T10:40:32.715Z,97834.02
2018-05-12T10:42:58.959Z,97837.50
2018-05-12T10:45:25.256Z,97826.15
2018-05-12T10:47:51.474Z,97821.10
2018-05-12T10:50:17.722Z,97822.58
2018-05-12T10:52:43.959Z,97824.62
2018-05-12T10:55:10.200Z,97813.45
2018-05-12T10:57:36.504Z,97808.27
2018-05-12T11:00:02.795Z,97816.02
2018-05-12T11:02:29.082Z,97815.79
2018-05-12T11:04:55.342Z,97821.02
2018-05-12T11:07:21.991Z,97817.03
2018-05-12T11:09:48.346Z,97815.31
2018-05-12T11:12:14.614Z,97817.26
2018-05-12T11:14:40.867Z,97808.19
2018-05-12T11:17:07.211Z,97807.34
2018-05-12T11:19:33.444Z,97802.27
2018-05-12T11:21:59.817Z,97789.00
2018-05-12T11:24:26.026Z,97794.31
2018-05-12T11:26:52.263Z,97792.64
2018-05-12T11:29:18.539Z,97792.45
2018-05-12T11:31:44.802Z,97793.45
2018-05-12T11:34:11.114Z,97782.45
2018-05-12T11:36:37.339Z,97777.88
2018-05-12T11:39:03.719Z,97779.20
2018-05-12T11:41:30.011Z,97769.94
2018-05-12T11:43:56.248Z,97774.84
2018-05-12T11:46:22.539Z,97779.01
2018-05-12T11:48:48.799Z,97773.53
2018-05-12T11:51:15.082Z,97776.00
2018-05-12T11:53:41.370Z,97764.44
2018-05-12T11:56:07.639Z,97753.56
2018-05-12T11:58:33.903Z,97745.65
2018-05-12T12:01:00.176Z,97741.48
2018-05-12T12:03:26.464Z,97752.11
2018-05-12T12:05:52.800Z,97746.59
2018-05-12T12:08:19.271Z,97755.09
2018-05-12T12:10:45.569Z,97755.44
2018-05-12T12:13:11.851Z,97757.95
2018-05-12T12:15:38.112Z,97751.40
2018-05-12T12:18:04.411Z,97747.86
2018-05-12T12:20:30.734Z,97747.89
2018-05-12T12:22:57.007Z,97746.14
2018-05-12T12:25:23.287Z,97752.90
2018-05-12T12:27:49.550Z,97745.80
2018-05-12T12:30:15.883Z,97746.83
2018-05-12T12:32:42.121Z,97736.03
2018-05-12T12:35:08.395Z,97735.98
2018-05-12T12:37:34.624Z,97728.75
2018-05-12T12:40:01.108Z,97729.41
2018-05-12T12:42:27.366Z,97726.93
2018-05-12T12:44:53.651Z,97722.94
2018-05-12T12:47:19.923Z,97715.95
2018-05-12T12:49:46.298Z,97720.03
2018-05-12T12:52:12.631Z,97717.97
2018-05-12T12:54:38.891Z,97710.58
2018-05-12T12:57:05.201Z,97707.37
2018-05-12T12:59:31.467Z,97712.84
2018-05-12T13:01:57.784Z,97706.63
2018-05-12T13:04:24.087Z,97703.39
2018-05-12T13:06:50.362Z,97706.05
2018-05-12T13:09:16.631Z,97697.91
2018-05-12T13:11:42.894Z,97690.44
2018-05-12T13:14:09.122Z,97689.33
2018-05-12T13:16:35.375Z,97698.98
2018-05-12T13:19:01.642Z,97692.27
2018-05-12T13:21:27.878Z,97686.34
2018-05-12T13:23:54.167Z,97686.02
2018-05-12T13:26:20.451Z,97687.88
2018-05-12T13:28:46.707Z,97677.95
2018-05-12T13:31:12.996Z,97675.59
2018-05-12T13:33:39.352Z,97672.86
2018-05-12T13:36:05.695Z,97669.16
2018-05-12T13:38:31.956Z,97671.28
2018-05-12T13:40:58.211Z,97674.16
2018-05-12T13:43:24.513Z,97665.12
2018-05-12T13:45:50.754Z,97666.45
2018-05-12T13:48:17.033Z,97664.23
2018-05-12T13:50:43.336Z,97658.78
2018-05-12T13:53:09.665Z,97660.22
2018-05-12T13:55:36.177Z,97656.41
2018-05-12T13:58:02.398Z,97661.73
2018-05-12T14:00:28.659Z,97658.22
2018-05-12T14:02:54.959Z,97658.77
2018-05-12T14:05:21.287Z,97653.86
2018-05-12T14:07:47.555Z,97652.98
2018-05-12T14:10:13.908Z,97651.00
2018-05-12T14:12:40.175Z,97647.44
2018-05-12T14:15:06.403Z,97640.83
2018-05-12T14:17:32.622Z,97641.28
2018-05-12T14:19:58.927Z,97645.64
2018-05-12T14:22:25.191Z,97631.23
2018-05-12T14:24:51.488Z,97635.91
2018-05-12T14:27:18.174Z,97637.15
2018-05-12T14:29:44.448Z,97630.59
2018-05-12T14:32:10.894Z,97629.73
2018-05-12T14:34:37.242Z,97628.14
2018-05-12T14:37:03.602Z,97621.68
2018-05-12T14:39:29.847Z,97628.17
2018-05-12T14:41:57.217Z,97630.11
2018-05-12T14:44:23.515Z,97629.67
2018-05-12T14:46:49.970Z,97624.91
2018-05-12T14:49:16.243Z,97629.77
2018-05-12T14:51:42.540Z,97629.52
2018-05-12T14:54:08.917Z,97634.59
2018-05-12T14:56:35.155Z,97622.35
2018-05-12T14:59:01.397Z,97625.91
2018-05-12T15:01:28.046Z,97635.91
2018-05-12T15:03:54.338Z,97626.89
2018-05-12T15:06:20.630Z,97627.83
2018-05-12T15:08:46.894Z,97621.45
2018-05-12T15:11:13.204Z,97627.48
2018-05-12T15:13:39.441Z,97624.27
2018-05-12T15:16:05.765Z,97618.97
2018-05-12T15:18:32.000Z,97617.35
2018-05-12T15:20:58.289Z,97615.63
2018-05-12T15:23:24.583Z,97618.98
2018-05-12T15:25:50.853Z,97612.09
2018-05-12T15:28:17.258Z,97611.25
2018-05-12T15:30:43.532Z,97605.19
2018-05-12T15:33:09.755Z,97605.66
2018-05-12T15:35:35.983Z,97603.13
2018-05-12T15:38:02.241Z,97607.58
2018-05-12T15:40:28.515Z,97601.85
2018-05-12T15:42:54.887Z,97604.70
2018-05-12T15:45:21.107Z,97611.17
2018-05-12T15:47:47.401Z,97610.58
2018-05-12T15:50:13.665Z,97606.59
2018-05-12T15:52:39.945Z,97601.25
2018-05-12T15:55:06.194Z,97598.84
2018-05-12T15:57:32.514Z,97594.64
2018-05-12T15:59:58.764Z,97598.71
2018-05-12T16:02:25.028Z,97588.75
2018-05-12T16:04:51.313Z,97594.47
2018-05-12T16:07:17.582Z,97586.38
2018-05-12T16:09:43.855Z,97578.70
2018-05-12T16:12:10.260Z,97579.82
2018-05-12T16:14:36.464Z,97581.27
2018-05-12T16:17:02.763Z,97577.03
2018-05-12T16:19:29.047Z,97572.42
2018-05-12T16:21:55.316Z,97577.83
2018-05-12T16:24:21.579Z,97580.17
2018-05-12T16:26:47.844Z,97572.89
2018-05-12T16:29:14.086Z,97570.61
2018-05-12T16:31:40.478Z,97567.84
2018-05-12T16:34:06.729Z,97570.34
2018-05-12T16:36:33.064Z,97580.05
2018-05-12T16:38:59.375Z,97592.33
2018-05-12T16:41:25.655Z,97586.41
2018-05-12T16:43:51.914Z,97589.29
2018-05-12T16:46:18.154Z,97590.13
2018-05-12T16:48:44.715Z,97591.20
2018-05-12T16:51:11.086Z,97587.19
2018-05-12T16:53:37.246Z,97592.87
2018-05-12T16:56:03.535Z,97590.94
2018-05-12T16:58:29.969Z,97592.45
2018-05-12T17:00:56.270Z,97595.91
2018-05-12T17:03:22.526Z,97601.37
2018-05-12T17:05:48.760Z,97591.73
2018-05-12T17:08:15.023Z,97591.34
2018-05-12T17:10:41.269Z,97590.91
2018-05-12T17:13:07.575Z,97588.55
2018-05-12T17:15:34.311Z,97591.66
2018-05-12T17:18:00.630Z,97586.84
2018-05-12T17:20:26.943Z,97587.65
2018-05-12T17:22:53.254Z,97588.26
2018-05-12T17:25:19.633Z,97582.78
2018-05-12T17:27:45.894Z,97589.32
2018-05-12T17:30:12.208Z,97598.87
2018-05-12T17:32:38.509Z,97597.07
2018-05-12T17:35:04.859Z,97595.59
2018-05-12T17:37:31.118Z,97594.27
2018-05-12T17:39:57.431Z,97590.02
2018-05-12T17:42:23.831Z,97595.29
2018-05-12T17:44:50.140Z,97593.24
2018-05-12T17:47:16.451Z,97594.75
2018-05-12T17:49:42.704Z,97598.28
2018-05-12T17:52:09.030Z,97594.16
2018-05-12T17:54:35.413Z,97591.53
2018-05-12T17:57:01.691Z,97590.84
2018-05-12T17:59:27.958Z,97588.88
2018-05-12T18:01:54.306Z,97590.50
2018-05-12T18:04:20.683Z,97588.64
2018-05-12T18:06:46.982Z,97586.05
2018-05-12T18:09:13.381Z,97597.58
2018-05-12T18:11:39.727Z,97595.72
2018-05-12T18:14:06.153Z,97592.08
2018-05-12T18:16:32.474Z,97598.10
2018-05-12T18:18:58.765Z,97606.83
2018-05-12T18:21:25.109Z,97611.34
2018-05-12T18:23:51.455Z,97604.36
2018-05-12T18:26:17.850Z,97606.09
2018-05-12T18:28:44.200Z,97613.91
2018-05-12T18:31:10.598Z,97610.89
2018-05-12T18:33:36.910Z,97611.64
2018-05-12T18:36:03.322Z,97619.34
2018-05-12T18:38:29.617Z,97616.04
2018-05-12T18:40:56.082Z,97618.50
2018-05-12T18:43:22.407Z,97621.60
2018-05-12T18:45:48.830Z,97618.77
2018-05-12T18:48:15.102Z,97614.03
2018-05-12T18:50:41.432Z,97616.00
2018-05-12T18:53:07.702Z,97617.80
2018-05-12T18:55:34.215Z,97612.23
2018-05-12T18:58:00.565Z,97610.89
2018-05-12T19:00:26.895Z,97621.16
2018-05-12T19:02:53.274Z,97615.51
2018-05-12T19:05:19.585Z,97616.34
2018-05-12T19:07:45.850Z,97617.75
2018-05-12T19:10:15.415Z,97617.80
2018-05-12T19:12:41.687Z,97621.73
2018-05-12T19:15:07.995Z,97623.13
2018-05-12T19:17:34.291Z,97623.85
2018-05-12T19:20:00.546Z,97619.96
2018-05-12T19:22:27.103Z,97621.54
2018-05-12T19:24:53.383Z,97620.39
2018-05-12T19:27:19.707Z,97610.54
2018-05-12T19:29:45.975Z,97614.44
2018-05-12T19:32:12.215Z,97610.27
2018-05-12T19:34:38.454Z,97609.09
2018-05-12T19:37:04.731Z,97609.59
2018-05-12T19:39:30.983Z,97610.50
2018-05-12T19:41:57.218Z,97614.79
2018-05-12T19:44:23.497Z,97612.83
2018-05-12T19:46:49.766Z,97608.09
2018-05-12T19:49:16.003Z,97608.25
2018-05-12T19:51:42.279Z,97607.41
2018-05-12T19:54:08.540Z,97602.98
2018-05-12T19:56:34.868Z,97602.98
2018-05-12T19:59:01.163Z,97597.52
2018-05-12T20:01:27.410Z,97599.03
2018-05-12T20:03:53.725Z,97599.20
2018-05-12T20:06:19.939Z,97600.82
2018-05-12T20:08:46.238Z,97606.15
2018-05-12T20:11:12.487Z,97608.48
2018-05-12T20:13:38.726Z,97603.95
2018-05-12T20:16:04.999Z,97603.15
2018-05-12T20:18:31.278Z,97603.80
2018-05-12T20:20:57.552Z,97608.62
2018-05-12T20:23:23.787Z,97603.34
2018-05-12T20:25:50.044Z,97606.98
2018-05-12T20:28:16.323Z,97595.09
2018-05-12T20:30:42.560Z,97594.51
2018-05-12T20:33:08.803Z,97589.59
2018-05-12T20:35:35.055Z,97592.48
2018-05-12T20:38:01.314Z,97590.70
2018-05-12T20:40:27.611Z,97585.55
2018-05-12T20:42:53.846Z,97592.47
2018-05-12T20:45:20.106Z,97595.44
2018-05-12T20:47:46.373Z,97593.65
2018-05-12T20:50:12.578Z,97598.94
2018-05-12T20:52:38.919Z,97597.34
2018-05-12T20:55:05.146Z,97587.07
2018-05-12T20:57:31.543Z,97581.36
2018-05-12T20:59:57.787Z,97584.04
2018-05-12T21:02:24.019Z,97588.52
2018-05-12T21:04:50.338Z,97585.47
2018-05-12T21:07:16.574Z,97581.17
2018-05-12T21:09:42.936Z,97585.40
2018-05-12T21:12:09.249Z,97583.25
2018-05-12T21:14:35.491Z,97583.31
2018-05-12T21:17:01.798Z,97581.58
2018-05-12T21:19:28.027Z,97580.96
2018-05-12T21:21:54.315Z,97580.56
2018-05-12T21:24:20.568Z,97582.02
2018-05-12T21:26:46.814Z,97579.13
2018-05-12T21:29:13.151Z,97582.26
2018-05-12T21:31:39.418Z,97583.94
2018-05-12T21:34:05.701Z,97584.96
2018-05-12T21:36:31.982Z,97580.98
2018-05-12T21:38:58.222Z,97583.95
2018-05-12T21:41:24.522Z,97581.42
2018-05-12T21:43:50.766Z,97589.34
2018-05-12T21:46:17.222Z,97589.08
2018-05-12T21:48:43.484Z,97585.22
2018-05-12T21:51:09.766Z,97579.23
2018-05-12T21:53:36.014Z,97584.20
2018-05-12T21:56:02.295Z,97584.93
2018-05-12T21:58:28.920Z,97587.42
2018-05-12T22:00:55.187Z,97583.05
2018-05-12T22:03:21.654Z,97586.63
2018-05-12T22:05:47.942Z,97587.94
2018-05-12T22:08:14.275Z,97585.69
2018-05-12T22:10:40.698Z,97589.64
2018-05-12T22:13:06.994Z,97586.87
2018-05-12T22:15:33.748Z,97589.56
2018-05-12T22:18:00.033Z,97587.73
2018-05-12T22:20:26.267Z,97583.56
2018-05-12T22:22:52.530Z,97581.13
2018-05-12T22:25:18.788Z,97582.34
2018-05-12T22:27:45.083Z,97579.73
2018-05-12T22:30:11.360Z,97584.28
2018-05-12T22:32:37.583Z,97587.47
2018-05-12T22:35:03.902Z,97591.08
2018-05-12T22:37:30.264Z,97595.78
2018-05-12T22:39:56.618Z,97590.54
2018-05-12T22:42:22.898Z,97591.91
2018-05-12T22:44:49.127Z,97586.59
2018-05-12T22:47:15.420Z,97584.00
2018-05-12T22:49:41.802Z,97583.32
2018-05-12T22:52:08.043Z,97577.55
2018-05-12T22:54:34.355Z,97580.73
2018-05-12T22:57:00.585Z,97574.19
2018-05-12T22:59:26.863Z,97570.41
2018-05-12T23:01:53.099Z,97570.14
2018-05-12T23:04:19.347Z,97567.17
2018-05-12T23:06:45.602Z,97563.70
2018-05-12T23:09:11.838Z,97563.66
2018-05-12T23:11:38.150Z,97567.88
2018-05-12T23:14:04.390Z,97563.70
2018-05-12T23:16:30.662Z,97568.13
2018-05-12T23:18:57.246Z,97567.75
2018-05-12T23:21:23.517Z,97569.80
2018-05-12T23:23:49.779Z,97565.91
2018-05-12T23:26:16.009Z,97568.14
2018-05-12T23:28:42.255Z,97566.55
2018-05-12T23:31:08.543Z,97570.19
2018-05-12T23:33:34.818Z,97565.21
2018-05-12T23:36:01.067Z,97565.81
2018-05-12T23:38:27.348Z,97566.98
2018-05-12T23:40:53.579Z,97567.47
2018-05-12T23:43:19.826Z,97566.97
2018-05-12T23:45:46.158Z,97564.26
2018-05-12T23:48:12.417Z,97561.29
2018-05-12T23:50:38.670Z,97562.58
2018-05-12T23:53:04.950Z,97558.41
2018-05-12T23:55:31.195Z,97559.17
2018-05-12T23:57:57.454Z,97553.16
